Kermanshah, Iran
Current Conditions -  °F | °C
As of 6:00 PM on Wednesday 26 Nov 2014 (Local Time) from OICC Reporting Station
Broken Clouds Broken Clouds  
Wind Chill: 45°   Ceiling: 4000
Heat Index: 48°   Visibility: 6mi
Dew Point: 39°   Wind: 7mph
Humidity: 71%   Direction: 120°ESE
Pressure: 30.06"   Gusts: NA
Location:  34.38°N, 47.06°E
Report Text: OICC 261500Z 12006KT 9999 FEW035CB BKN040 09/04 Q1018 A3007TEMPO RA
Loading
Personal Weather Stations






























Interactive Weather Map New forecast layout! Learn more

10-Day Weather Forecast

Advertisements
Track Severe Weather on mobile